This is the latest recevied weather packets stored in our database for station/object HB9TJM-8. If no packets are shown the sender has not sent any weather packets the latest 10 day(s).
| Time | Temp. | Humidity | Pressure | Rain* | Wind** | Luminosity | Snow |
|---|---|---|---|---|---|---|---|
| 1777758965 | 15° C | 55% | 1018.9 hPa | 0 mm | - | 0 W/m² | - |
| 1777758658 | 15° C | 54% | 1019.5 hPa | 0 mm | - | 0 W/m² | - |
| 1777757734 | 15° C | 53% | 1019.3 hPa | 0 mm | - | 0 W/m² | - |
| 1777757427 | 15° C | 53% | 1019.2 hPa | 0 mm | - | 0 W/m² | - |
| 1777757120 | 15° C | 54% | 1019 hPa | 0 mm | - | 0 W/m² | - |
| 1777756812 | 15° C | 53% | 1018.8 hPa | 0 mm | - | 0 W/m² | - |
| 1777756197 | 15° C | 54% | 1018.7 hPa | 0 mm | - | 0 W/m² | - |
| 1777755274 | 15° C | 56% | 1020 hPa | 0 mm | - | 0 W/m² | - |
| 1777754967 | 15° C | 56% | 1019.9 hPa | 0 mm | - | 0 W/m² | - |
| 1777754351 | 15° C | 57% | 1019.5 hPa | 0 mm | - | 0 W/m² | - |
| 1777753736 | 15.56° C | 57% | 1020 hPa | 0 mm | - | 0 W/m² | - |
| 1777751276 | 15.56° C | 57% | 1019 hPa | 0 mm | - | 0 W/m² | - |
| 1777750969 | 15.56° C | 56% | 1018.8 hPa | 0 mm | - | 0 W/m² | - |
| 1777750661 | 15.56° C | 57% | 1019.5 hPa | 0 mm | - | 0 W/m² | - |
| 1777748816 | 16.11° C | 57% | 1018.8 hPa | 0 mm | - | 0 W/m² | - |
| 1777748508 | 16.11° C | 57% | 1019.1 hPa | 0 mm | - | 0 W/m² | - |
| 1777747893 | 16.11° C | 58% | 1018.8 hPa | 0 mm | - | 1 W/m² | - |
| 1777747586 | 16.11° C | 57% | 1018.6 hPa | 0 mm | - | 2 W/m² | - |
| 1777746971 | 16.67° C | 54% | 1018.8 hPa | 0 mm | - | 5 W/m² | - |
| 1777746356 | 16.11° C | 53% | 1018.8 hPa | 0 mm | - | 11 W/m² | - |
| 1777746049 | 16.11° C | 51% | 1018.7 hPa | 0 mm | - | 15 W/m² | - |
| 1777745741 | 17.22° C | 47% | 1018.3 hPa | 0 mm | - | 20 W/m² | - |
| 1777745434 | 16.67° C | 47% | 1018.6 hPa | 0 mm | - | 27 W/m² | - |
| 1777745126 | 17.22° C | 42% | 1018.9 hPa | 0 mm | - | 32 W/m² | - |
| 1777744819 | 17.78° C | 42% | 1018.4 hPa | 0 mm | - | 37 W/m² | - |
* Rain latest hour (hover to see other rain measurements)
** Current wind speed in m/s (hover to see current wind gust speed)